createdAt,value
2019-03-20T00:01:14.587Z,4.70
2019-03-20T00:06:20.045Z,4.70
2019-03-20T00:11:25.678Z,4.60
2019-03-20T00:16:31.147Z,4.50
2019-03-20T00:21:36.637Z,4.40
2019-03-20T00:26:42.138Z,4.40
2019-03-20T00:31:47.723Z,4.30
2019-03-20T00:36:53.207Z,4.30
2019-03-20T00:41:58.770Z,4.30
2019-03-20T00:47:04.484Z,4.20
2019-03-20T00:52:10.314Z,4.20
2019-03-20T00:57:15.940Z,4.10
2019-03-20T01:02:21.551Z,4.00
2019-03-20T01:07:27.227Z,4.00
2019-03-20T01:12:32.757Z,4.00
2019-03-20T01:17:38.291Z,3.90
2019-03-20T01:22:43.770Z,3.90
2019-03-20T01:27:49.267Z,3.80
2019-03-20T01:32:54.755Z,3.80
2019-03-20T01:38:00.458Z,3.70
2019-03-20T01:43:06.012Z,3.70
2019-03-20T01:48:11.511Z,3.70
2019-03-20T01:53:17.037Z,3.60
2019-03-20T01:58:22.564Z,3.60
2019-03-20T02:03:28.136Z,3.50
2019-03-20T02:08:33.616Z,3.50
2019-03-20T02:13:39.109Z,3.50
2019-03-20T02:18:44.571Z,3.40
2019-03-20T02:23:50.139Z,3.40
2019-03-20T02:28:55.627Z,3.40
2019-03-20T02:34:01.197Z,3.30
2019-03-20T02:39:08.539Z,3.30
2019-03-20T02:44:14.120Z,3.20
2019-03-20T02:49:19.651Z,3.20
2019-03-20T02:54:25.160Z,3.20
2019-03-20T02:59:30.687Z,3.10
2019-03-20T03:04:36.176Z,3.10
2019-03-20T03:09:41.716Z,3.10
2019-03-20T03:14:47.217Z,3.00
2019-03-20T03:19:52.776Z,3.00
2019-03-20T03:24:58.260Z,2.90
2019-03-20T03:30:03.884Z,2.90
2019-03-20T03:35:15.575Z,2.90
2019-03-20T03:40:16.576Z,2.80
2019-03-20T03:45:22.066Z,2.80
2019-03-20T03:50:27.549Z,2.80
2019-03-20T03:55:33.112Z,2.70
2019-03-20T04:00:38.689Z,2.70
2019-03-20T04:05:44.173Z,2.70
2019-03-20T04:10:49.741Z,2.70
2019-03-20T04:15:55.256Z,2.60
2019-03-20T04:21:00.854Z,2.60
2019-03-20T04:26:06.358Z,2.60
2019-03-20T04:31:11.828Z,2.60
2019-03-20T04:36:17.317Z,2.60
2019-03-20T04:41:22.823Z,2.50
2019-03-20T04:46:28.315Z,2.60
2019-03-20T04:51:33.914Z,2.60
2019-03-20T04:56:39.393Z,2.60
2019-03-20T05:01:44.927Z,2.50
2019-03-20T05:06:58.678Z,2.50
2019-03-20T05:11:57.714Z,2.40
2019-03-20T05:17:03.258Z,2.40
2019-03-20T05:22:08.863Z,2.40
2019-03-20T05:27:14.333Z,2.40
2019-03-20T05:32:19.862Z,2.40
2019-03-20T05:37:25.395Z,2.40
2019-03-20T05:42:30.883Z,2.40
2019-03-20T05:47:36.341Z,2.40
2019-03-20T05:52:41.848Z,2.40
2019-03-20T05:57:48.196Z,2.50
2019-03-20T06:02:53.696Z,2.60
2019-03-20T06:07:59.282Z,2.70
2019-03-20T06:13:04.931Z,2.80
2019-03-20T06:18:10.600Z,2.80
2019-03-20T06:23:16.128Z,3.00
2019-03-20T06:28:21.606Z,3.10
2019-03-20T06:33:27.099Z,3.30
2019-03-20T06:38:32.596Z,3.50
2019-03-20T06:43:38.091Z,3.80
2019-03-20T06:48:43.889Z,4.10
2019-03-20T06:53:49.472Z,4.70
2019-03-20T06:59:50.720Z,5.50
2019-03-20T07:05:39.605Z,6.10
2019-03-20T07:11:06.302Z,7.00
2019-03-20T07:16:11.771Z,7.20
2019-03-20T07:21:18.739Z,7.50
2019-03-20T07:26:24.337Z,7.70
2019-03-20T07:31:29.921Z,8.10
2019-03-20T07:36:35.535Z,8.60
2019-03-20T07:41:41.037Z,8.70
2019-03-20T07:46:46.512Z,8.60
2019-03-20T07:51:51.991Z,8.60
2019-03-20T07:56:57.678Z,8.60
2019-03-20T08:02:03.310Z,8.50
2019-03-20T08:07:08.814Z,8.50
2019-03-20T08:12:14.337Z,8.60
2019-03-20T08:17:19.848Z,8.70
2019-03-20T08:22:25.394Z,8.70
2019-03-20T08:27:30.869Z,8.80
2019-03-20T08:32:36.461Z,8.80
2019-03-20T08:37:41.937Z,9.10
2019-03-20T08:42:47.481Z,9.60
2019-03-20T08:47:53.123Z,9.90
2019-03-20T08:52:58.616Z,10.20
2019-03-20T08:58:04.223Z,10.40
2019-03-20T09:03:09.877Z,10.60
2019-03-20T09:08:15.439Z,10.70
2019-03-20T09:13:20.933Z,10.80
2019-03-20T09:18:26.438Z,10.80
2019-03-20T09:23:31.945Z,10.80
2019-03-20T09:28:37.452Z,10.90
2019-03-20T09:33:42.957Z,11.20
2019-03-20T09:38:48.532Z,11.60
2019-03-20T09:43:54.049Z,11.80
2019-03-20T09:48:59.615Z,12.20
2019-03-20T09:54:05.152Z,12.70
2019-03-20T09:59:10.638Z,13.00
2019-03-20T10:04:16.176Z,13.30
2019-03-20T10:09:21.679Z,14.10
2019-03-20T10:14:27.155Z,15.00
2019-03-20T10:19:32.807Z,16.00
2019-03-20T10:24:38.534Z,16.80
2019-03-20T10:29:44.032Z,17.40
2019-03-20T10:34:51.361Z,17.70
2019-03-20T10:39:56.980Z,18.10
2019-03-20T10:45:02.515Z,18.20
2019-03-20T10:50:11.101Z,18.10
2019-03-20T10:55:16.585Z,17.70
2019-03-20T11:00:22.527Z,17.20
2019-03-20T11:05:28.112Z,17.20
2019-03-20T11:10:33.597Z,17.60
2019-03-20T11:15:39.113Z,17.80
2019-03-20T11:20:44.597Z,18.00
2019-03-20T11:25:50.150Z,18.20
2019-03-20T11:30:55.655Z,18.30
2019-03-20T11:36:01.145Z,18.30
2019-03-20T11:41:06.675Z,18.30
2019-03-20T11:46:12.139Z,18.40
2019-03-20T11:51:17.812Z,18.20
2019-03-20T11:56:23.277Z,18.00
2019-03-20T12:01:28.832Z,17.90
2019-03-20T12:06:34.338Z,17.80
2019-03-20T12:11:45.946Z,17.80
2019-03-20T12:16:46.991Z,17.70
2019-03-20T12:21:52.702Z,17.70
2019-03-20T12:26:58.280Z,17.50
2019-03-20T12:32:03.887Z,17.30
2019-03-20T12:37:09.431Z,17.00
2019-03-20T12:42:15.056Z,16.90
2019-03-20T12:47:20.630Z,16.90
2019-03-20T12:52:26.187Z,17.10
2019-03-20T12:57:31.671Z,17.50
2019-03-20T13:02:37.211Z,18.00
2019-03-20T13:07:44.056Z,18.50
2019-03-20T13:12:49.699Z,18.80
2019-03-20T13:17:55.121Z,18.90
2019-03-20T13:23:07.567Z,18.90
2019-03-20T13:28:13.024Z,19.10
2019-03-20T13:33:25.786Z,19.10
2019-03-20T13:38:25.718Z,19.00
2019-03-20T13:43:31.132Z,19.10
2019-03-20T13:48:36.588Z,19.00
2019-03-20T13:53:42.092Z,18.80
2019-03-20T13:58:47.602Z,18.70
2019-03-20T14:03:53.095Z,18.70
2019-03-20T14:08:58.709Z,18.60
2019-03-20T14:14:04.121Z,18.40
2019-03-20T14:19:10.626Z,18.30
2019-03-20T14:24:16.272Z,18.20
2019-03-20T14:29:21.680Z,18.10
2019-03-20T14:34:27.120Z,18.00
2019-03-20T14:39:32.853Z,18.10
2019-03-20T14:44:38.563Z,18.10
2019-03-20T14:49:44.171Z,18.10
2019-03-20T14:54:49.592Z,18.10
2019-03-20T14:59:55.130Z,18.10
2019-03-20T15:05:00.687Z,17.90
2019-03-20T15:10:06.410Z,17.90
2019-03-20T15:15:17.564Z,17.70
2019-03-20T15:20:22.991Z,17.40
2019-03-20T15:25:28.453Z,17.40
2019-03-20T15:30:33.992Z,17.30
2019-03-20T15:35:39.480Z,17.10
2019-03-20T15:40:44.919Z,16.80
2019-03-20T15:45:50.382Z,16.50
2019-03-20T15:50:55.842Z,16.10
2019-03-20T15:56:01.313Z,15.80
2019-03-20T16:01:06.791Z,15.60
2019-03-20T16:06:12.280Z,15.50
2019-03-20T16:11:17.716Z,15.50
2019-03-20T16:16:23.215Z,15.50
2019-03-20T16:21:28.694Z,15.40
2019-03-20T16:26:34.151Z,15.30
2019-03-20T16:31:39.592Z,15.10
2019-03-20T16:36:45.047Z,15.00
2019-03-20T16:41:50.490Z,14.90
2019-03-20T16:46:56.018Z,14.90
2019-03-20T16:52:01.642Z,14.80
2019-03-20T16:57:07.179Z,14.70
2019-03-20T17:02:12.607Z,14.50
2019-03-20T17:07:18.202Z,14.30
2019-03-20T17:12:23.633Z,14.20
2019-03-20T17:17:29.098Z,14.00
2019-03-20T17:22:41.734Z,13.80
2019-03-20T17:27:41.886Z,13.60
2019-03-20T17:32:48.403Z,13.40
2019-03-20T17:37:53.948Z,13.20
2019-03-20T17:42:59.542Z,12.90
2019-03-20T17:48:05.197Z,12.80
2019-03-20T17:53:10.733Z,12.60
2019-03-20T17:58:16.630Z,12.40
2019-03-20T18:03:22.225Z,12.20
2019-03-20T18:08:27.833Z,12.10
2019-03-20T18:13:33.273Z,11.80
2019-03-20T18:18:38.677Z,11.50
2019-03-20T18:23:44.232Z,11.30
2019-03-20T18:28:49.748Z,11.10
2019-03-20T18:33:55.221Z,10.90
2019-03-20T18:39:00.675Z,10.70
2019-03-20T18:44:06.121Z,10.60
2019-03-20T18:49:11.588Z,10.40
2019-03-20T18:54:17.020Z,10.30
2019-03-20T18:59:22.438Z,10.20
2019-03-20T19:04:27.863Z,10.10
2019-03-20T19:09:33.353Z,10.00
2019-03-20T19:14:39.945Z,9.90
2019-03-20T19:19:45.413Z,9.80
2019-03-20T19:24:50.915Z,9.80
2019-03-20T19:29:56.422Z,9.70
2019-03-20T19:35:01.858Z,9.60
2019-03-20T19:40:07.933Z,9.50
2019-03-20T19:45:13.469Z,9.40
2019-03-20T19:50:19.022Z,9.30
2019-03-20T19:55:24.429Z,9.30
2019-03-20T20:00:29.884Z,9.20
2019-03-20T20:05:35.334Z,9.20
2019-03-20T20:10:40.878Z,9.10
2019-03-20T20:15:46.288Z,9.00
2019-03-20T20:20:51.755Z,8.90
2019-03-20T20:25:57.278Z,8.80
2019-03-20T20:31:02.710Z,8.70
2019-03-20T20:36:08.124Z,8.60
2019-03-20T20:41:13.538Z,8.60
2019-03-20T20:46:19.029Z,8.50
2019-03-20T20:51:24.476Z,8.50
2019-03-20T20:56:29.970Z,8.40
2019-03-20T21:01:35.431Z,8.40
2019-03-20T21:06:41.584Z,8.30
2019-03-20T21:11:47.036Z,8.20
2019-03-20T21:16:53.794Z,8.20
2019-03-20T21:23:01.155Z,8.10
2019-03-20T21:28:59.610Z,8.00
2019-03-20T21:35:09.624Z,8.00
2019-03-20T21:40:18.035Z,7.90
2019-03-20T21:45:54.988Z,7.90
2019-03-20T21:51:18.470Z,7.80
2019-03-20T21:56:34.335Z,7.80
2019-03-20T22:02:37.123Z,7.70
2019-03-20T22:07:43.379Z,7.70
2019-03-20T22:13:44.439Z,7.70
2019-03-20T22:19:36.661Z,7.60
2019-03-20T22:25:49.344Z,7.60
2019-03-20T22:30:55.580Z,7.50
2019-03-20T22:36:22.447Z,7.40
2019-03-20T22:41:57.578Z,7.40
2019-03-20T22:47:56.322Z,7.30
2019-03-20T22:54:12.128Z,7.30
2019-03-20T22:59:18.431Z,7.20
2019-03-20T23:04:33.405Z,7.20
2019-03-20T23:09:39.629Z,7.20
2019-03-20T23:14:45.971Z,7.10
2019-03-20T23:19:54.175Z,7.10
2019-03-20T23:25:00.467Z,7.00
2019-03-20T23:30:15.142Z,7.10
2019-03-20T23:35:21.358Z,7.10
2019-03-20T23:40:27.586Z,7.00
2019-03-20T23:45:33.876Z,7.00
2019-03-20T23:50:40.264Z,7.00
2019-03-20T23:55:46.505Z,6.90
